sensor_id;sensor_type;location;lat;lon;timestamp;P1;durP1;ratioP1;P2;durP2;ratioP2
71963;SDS011;59834;52.124;5.422;2022-08-21T00:01:41;2.28;;;0.80;;
71963;SDS011;59834;52.124;5.422;2022-08-21T00:04:08;2.38;;;1.10;;
71963;SDS011;59834;52.124;5.422;2022-08-21T00:06:36;3.00;;;1.10;;
71963;SDS011;59834;52.124;5.422;2022-08-21T00:09:04;4.20;;;1.20;;
71963;SDS011;59834;52.124;5.422;2022-08-21T00:11:36;2.42;;;0.98;;
71963;SDS011;59834;52.124;5.422;2022-08-21T00:14:04;3.72;;;1.00;;
71963;SDS011;59834;52.124;5.422;2022-08-21T00:16:34;3.25;;;0.80;;
71963;SDS011;59834;52.124;5.422;2022-08-21T00:19:01;2.83;;;0.90;;
71963;SDS011;59834;52.124;5.422;2022-08-21T00:21:28;4.10;;;1.02;;
71963;SDS011;59834;52.124;5.422;2022-08-21T00:23:54;6.30;;;1.13;;
71963;SDS011;59834;52.124;5.422;2022-08-21T00:26:21;3.60;;;1.02;;
71963;SDS011;59834;52.124;5.422;2022-08-21T00:28:47;4.18;;;0.77;;
71963;SDS011;59834;52.124;5.422;2022-08-21T00:31:15;3.03;;;0.93;;
71963;SDS011;59834;52.124;5.422;2022-08-21T00:33:42;2.55;;;0.98;;
71963;SDS011;59834;52.124;5.422;2022-08-21T00:36:09;3.55;;;0.85;;
71963;SDS011;59834;52.124;5.422;2022-08-21T00:38:36;5.72;;;1.02;;
71963;SDS011;59834;52.124;5.422;2022-08-21T00:41:05;4.13;;;1.40;;
71963;SDS011;59834;52.124;5.422;2022-08-21T00:43:53;3.57;;;1.10;;
71963;SDS011;59834;52.124;5.422;2022-08-21T00:46:20;2.35;;;1.38;;
71963;SDS011;59834;52.124;5.422;2022-08-21T00:48:53;2.90;;;1.05;;
71963;SDS011;59834;52.124;5.422;2022-08-21T00:52:08;2.85;;;1.60;;
71963;SDS011;59834;52.124;5.422;2022-08-21T00:54:22;2.08;;;1.17;;
71963;SDS011;59834;52.124;5.422;2022-08-21T00:56:54;4.53;;;1.23;;
71963;SDS011;59834;52.124;5.422;2022-08-21T00:59:26;3.80;;;1.10;;
71963;SDS011;59834;52.124;5.422;2022-08-21T01:01:56;6.43;;;1.10;;
71963;SDS011;59834;52.124;5.422;2022-08-21T01:04:22;5.50;;;1.10;;
71963;SDS011;59834;52.124;5.422;2022-08-21T01:06:49;6.00;;;1.52;;
71963;SDS011;59834;52.124;5.422;2022-08-21T01:09:17;2.70;;;1.10;;
71963;SDS011;59834;52.124;5.422;2022-08-21T01:11:45;4.07;;;1.45;;
71963;SDS011;59834;52.124;5.422;2022-08-21T01:14:12;6.72;;;1.15;;
71963;SDS011;59834;52.124;5.422;2022-08-21T01:16:40;3.55;;;1.55;;
71963;SDS011;59834;52.124;5.422;2022-08-21T01:19:10;3.78;;;1.65;;
71963;SDS011;59834;52.124;5.422;2022-08-21T01:21:37;4.30;;;1.33;;
71963;SDS011;59834;52.124;5.422;2022-08-21T01:24:04;4.10;;;1.05;;
71963;SDS011;59834;52.124;5.422;2022-08-21T01:26:32;2.83;;;1.00;;
71963;SDS011;59834;52.124;5.422;2022-08-21T01:29:09;2.60;;;0.85;;
71963;SDS011;59834;52.124;5.422;2022-08-21T01:31:41;2.40;;;0.82;;
71963;SDS011;59834;52.124;5.422;2022-08-21T01:34:08;4.73;;;1.00;;
71963;SDS011;59834;52.124;5.422;2022-08-21T01:36:35;6.03;;;1.38;;
71963;SDS011;59834;52.124;5.422;2022-08-21T01:39:02;3.25;;;1.10;;
71963;SDS011;59834;52.124;5.422;2022-08-21T01:41:30;3.35;;;0.90;;
71963;SDS011;59834;52.124;5.422;2022-08-21T01:43:56;3.05;;;1.13;;
71963;SDS011;59834;52.124;5.422;2022-08-21T01:46:23;5.17;;;1.00;;
71963;SDS011;59834;52.124;5.422;2022-08-21T01:48:49;7.75;;;1.02;;
71963;SDS011;59834;52.124;5.422;2022-08-21T01:51:16;3.38;;;1.00;;
71963;SDS011;59834;52.124;5.422;2022-08-21T01:53:42;3.22;;;1.08;;
71963;SDS011;59834;52.124;5.422;2022-08-21T01:56:10;4.25;;;1.20;;
71963;SDS011;59834;52.124;5.422;2022-08-21T01:58:39;1.10;;;0.70;;
71963;SDS011;59834;52.124;5.422;2022-08-21T02:01:08;3.15;;;0.95;;
71963;SDS011;59834;52.124;5.422;2022-08-21T02:03:36;4.07;;;1.30;;
71963;SDS011;59834;52.124;5.422;2022-08-21T02:06:03;2.55;;;0.88;;
71963;SDS011;59834;52.124;5.422;2022-08-21T02:08:31;3.75;;;1.00;;
71963;SDS011;59834;52.124;5.422;2022-08-21T02:10:58;4.03;;;1.30;;
71963;SDS011;59834;52.124;5.422;2022-08-21T02:13:25;1.95;;;1.20;;
71963;SDS011;59834;52.124;5.422;2022-08-21T02:15:52;3.33;;;1.52;;
71963;SDS011;59834;52.124;5.422;2022-08-21T02:18:18;4.03;;;1.55;;
71963;SDS011;59834;52.124;5.422;2022-08-21T02:20:47;4.28;;;1.65;;
71963;SDS011;59834;52.124;5.422;2022-08-21T02:23:21;6.27;;;1.57;;
71963;SDS011;59834;52.124;5.422;2022-08-21T02:25:53;5.18;;;1.95;;
71963;SDS011;59834;52.124;5.422;2022-08-21T02:28:21;7.47;;;1.33;;
71963;SDS011;59834;52.124;5.422;2022-08-21T02:30:48;3.25;;;1.77;;
71963;SDS011;59834;52.124;5.422;2022-08-21T02:33:15;2.95;;;1.23;;
71963;SDS011;59834;52.124;5.422;2022-08-21T02:35:43;5.47;;;1.70;;
71963;SDS011;59834;52.124;5.422;2022-08-21T02:38:13;2.40;;;1.40;;
71963;SDS011;59834;52.124;5.422;2022-08-21T02:40:43;3.35;;;1.10;;
71963;SDS011;59834;52.124;5.422;2022-08-21T02:43:16;3.40;;;1.60;;
71963;SDS011;59834;52.124;5.422;2022-08-21T02:45:45;3.42;;;1.60;;
71963;SDS011;59834;52.124;5.422;2022-08-21T02:48:13;2.90;;;1.73;;
71963;SDS011;59834;52.124;5.422;2022-08-21T02:50:44;5.88;;;2.08;;
71963;SDS011;59834;52.124;5.422;2022-08-21T02:53:14;2.95;;;1.48;;
71963;SDS011;59834;52.124;5.422;2022-08-21T02:55:46;4.15;;;1.48;;
71963;SDS011;59834;52.124;5.422;2022-08-21T02:58:15;2.38;;;1.60;;
71963;SDS011;59834;52.124;5.422;2022-08-21T03:00:43;4.87;;;1.43;;
71963;SDS011;59834;52.124;5.422;2022-08-21T03:03:11;3.95;;;1.33;;
71963;SDS011;59834;52.124;5.422;2022-08-21T03:05:38;3.78;;;1.33;;
71963;SDS011;59834;52.124;5.422;2022-08-21T03:08:06;2.90;;;1.80;;
71963;SDS011;59834;52.124;5.422;2022-08-21T03:10:37;4.60;;;2.22;;
71963;SDS011;59834;52.124;5.422;2022-08-21T03:13:06;4.60;;;1.67;;
71963;SDS011;59834;52.124;5.422;2022-08-21T03:15:33;5.53;;;1.98;;
71963;SDS011;59834;52.124;5.422;2022-08-21T03:18:00;5.65;;;1.90;;
71963;SDS011;59834;52.124;5.422;2022-08-21T03:20:27;3.50;;;1.58;;
71963;SDS011;59834;52.124;5.422;2022-08-21T03:22:55;4.25;;;2.42;;
71963;SDS011;59834;52.124;5.422;2022-08-21T03:25:22;3.30;;;1.33;;
71963;SDS011;59834;52.124;5.422;2022-08-21T03:28:06;4.18;;;2.22;;
71963;SDS011;59834;52.124;5.422;2022-08-21T03:30:38;3.97;;;2.03;;
71963;SDS011;59834;52.124;5.422;2022-08-21T03:33:06;5.03;;;1.90;;
71963;SDS011;59834;52.124;5.422;2022-08-21T03:35:32;3.10;;;1.90;;
71963;SDS011;59834;52.124;5.422;2022-08-21T03:37:59;3.60;;;1.70;;
71963;SDS011;59834;52.124;5.422;2022-08-21T03:40:25;4.93;;;1.60;;
71963;SDS011;59834;52.124;5.422;2022-08-21T03:42:52;4.57;;;2.20;;
71963;SDS011;59834;52.124;5.422;2022-08-21T03:45:19;4.65;;;1.77;;
71963;SDS011;59834;52.124;5.422;2022-08-21T03:47:59;5.13;;;1.95;;
71963;SDS011;59834;52.124;5.422;2022-08-21T03:50:31;3.63;;;2.10;;
71963;SDS011;59834;52.124;5.422;2022-08-21T03:53:06;4.70;;;1.77;;
71963;SDS011;59834;52.124;5.422;2022-08-21T03:55:42;4.97;;;2.15;;
71963;SDS011;59834;52.124;5.422;2022-08-21T03:58:09;4.90;;;3.17;;
71963;SDS011;59834;52.124;5.422;2022-08-21T04:00:42;7.50;;;2.42;;
71963;SDS011;59834;52.124;5.422;2022-08-21T04:03:10;4.17;;;1.80;;
71963;SDS011;59834;52.124;5.422;2022-08-21T04:05:36;5.32;;;2.65;;
71963;SDS011;59834;52.124;5.422;2022-08-21T04:08:04;13.27;;;4.38;;
71963;SDS011;59834;52.124;5.422;2022-08-21T04:10:33;6.60;;;3.70;;
71963;SDS011;59834;52.124;5.422;2022-08-21T04:13:01;7.10;;;2.75;;
71963;SDS011;59834;52.124;5.422;2022-08-21T04:15:29;4.37;;;2.70;;
71963;SDS011;59834;52.124;5.422;2022-08-21T04:17:55;3.42;;;2.25;;
71963;SDS011;59834;52.124;5.422;2022-08-21T04:20:22;4.90;;;2.58;;
71963;SDS011;59834;52.124;5.422;2022-08-21T04:22:49;8.18;;;2.17;;
71963;SDS011;59834;52.124;5.422;2022-08-21T04:25:18;7.60;;;2.72;;
71963;SDS011;59834;52.124;5.422;2022-08-21T04:27:46;7.30;;;2.70;;
71963;SDS011;59834;52.124;5.422;2022-08-21T04:30:13;5.03;;;2.45;;
71963;SDS011;59834;52.124;5.422;2022-08-21T04:32:50;6.50;;;2.72;;
71963;SDS011;59834;52.124;5.422;2022-08-21T04:35:18;5.07;;;2.63;;
71963;SDS011;59834;52.124;5.422;2022-08-21T04:37:47;5.13;;;2.90;;
71963;SDS011;59834;52.124;5.422;2022-08-21T04:40:14;7.93;;;3.47;;
71963;SDS011;59834;52.124;5.422;2022-08-21T04:42:44;4.60;;;2.60;;
71963;SDS011;59834;52.124;5.422;2022-08-21T04:45:16;5.78;;;3.40;;
71963;SDS011;59834;52.124;5.422;2022-08-21T04:47:51;8.85;;;3.90;;
71963;SDS011;59834;52.124;5.422;2022-08-21T04:50:20;5.55;;;3.10;;
71963;SDS011;59834;52.124;5.422;2022-08-21T04:52:50;7.47;;;3.57;;
71963;SDS011;59834;52.124;5.422;2022-08-21T04:55:17;8.05;;;3.25;;
71963;SDS011;59834;52.124;5.422;2022-08-21T04:57:45;6.65;;;3.47;;
71963;SDS011;59834;52.124;5.422;2022-08-21T05:00:15;5.10;;;3.30;;
71963;SDS011;59834;52.124;5.422;2022-08-21T05:02:45;5.68;;;3.38;;
71963;SDS011;59834;52.124;5.422;2022-08-21T05:05:16;7.23;;;3.03;;
71963;SDS011;59834;52.124;5.422;2022-08-21T05:07:43;6.82;;;3.67;;
71963;SDS011;59834;52.124;5.422;2022-08-21T05:10:10;4.07;;;3.63;;
71963;SDS011;59834;52.124;5.422;2022-08-21T05:12:39;6.20;;;3.63;;
71963;SDS011;59834;52.124;5.422;2022-08-21T05:15:08;7.72;;;3.47;;
71963;SDS011;59834;52.124;5.422;2022-08-21T05:17:39;7.60;;;3.43;;
71963;SDS011;59834;52.124;5.422;2022-08-21T05:20:07;10.95;;;4.63;;
71963;SDS011;59834;52.124;5.422;2022-08-21T05:22:35;7.90;;;4.35;;
71963;SDS011;59834;52.124;5.422;2022-08-21T05:25:01;6.75;;;3.05;;
71963;SDS011;59834;52.124;5.422;2022-08-21T05:27:35;6.60;;;3.38;;
71963;SDS011;59834;52.124;5.422;2022-08-21T05:30:05;8.53;;;3.67;;
71963;SDS011;59834;52.124;5.422;2022-08-21T05:32:34;6.35;;;3.13;;
71963;SDS011;59834;52.124;5.422;2022-08-21T05:35:01;4.90;;;2.95;;
71963;SDS011;59834;52.124;5.422;2022-08-21T05:37:29;4.72;;;2.78;;
71963;SDS011;59834;52.124;5.422;2022-08-21T05:39:55;6.95;;;2.67;;
71963;SDS011;59834;52.124;5.422;2022-08-21T05:42:42;5.73;;;3.10;;
71963;SDS011;59834;52.124;5.422;2022-08-21T05:45:08;3.70;;;2.70;;
71963;SDS011;59834;52.124;5.422;2022-08-21T05:47:35;5.07;;;2.60;;
71963;SDS011;59834;52.124;5.422;2022-08-21T05:50:02;6.97;;;3.55;;
71963;SDS011;59834;52.124;5.422;2022-08-21T05:52:29;6.50;;;2.95;;
71963;SDS011;59834;52.124;5.422;2022-08-21T05:54:56;9.37;;;3.07;;
71963;SDS011;59834;52.124;5.422;2022-08-21T05:57:23;6.05;;;2.30;;
71963;SDS011;59834;52.124;5.422;2022-08-21T05:59:51;6.75;;;2.65;;
71963;SDS011;59834;52.124;5.422;2022-08-21T06:02:18;7.35;;;2.80;;
71963;SDS011;59834;52.124;5.422;2022-08-21T06:04:46;5.78;;;3.03;;
71963;SDS011;59834;52.124;5.422;2022-08-21T06:07:13;4.17;;;2.67;;
71963;SDS011;59834;52.124;5.422;2022-08-21T06:09:40;5.53;;;2.60;;
71963;SDS011;59834;52.124;5.422;2022-08-21T06:12:08;5.50;;;2.78;;
71963;SDS011;59834;52.124;5.422;2022-08-21T06:14:37;5.07;;;2.78;;
71963;SDS011;59834;52.124;5.422;2022-08-21T06:17:07;8.10;;;3.22;;
71963;SDS011;59834;52.124;5.422;2022-08-21T06:19:36;11.03;;;3.10;;
71963;SDS011;59834;52.124;5.422;2022-08-21T06:22:02;8.65;;;3.05;;
71963;SDS011;59834;52.124;5.422;2022-08-21T06:24:30;9.70;;;3.40;;
71963;SDS011;59834;52.124;5.422;2022-08-21T06:26:57;12.75;;;3.65;;
71963;SDS011;59834;52.124;5.422;2022-08-21T06:29:23;4.78;;;2.80;;
71963;SDS011;59834;52.124;5.422;2022-08-21T06:31:51;9.10;;;3.37;;
71963;SDS011;59834;52.124;5.422;2022-08-21T06:34:17;9.63;;;3.00;;
71963;SDS011;59834;52.124;5.422;2022-08-21T06:36:44;8.32;;;2.83;;
71963;SDS011;59834;52.124;5.422;2022-08-21T06:39:11;6.22;;;2.90;;
71963;SDS011;59834;52.124;5.422;2022-08-21T06:41:55;5.13;;;2.95;;
71963;SDS011;59834;52.124;5.422;2022-08-21T06:44:22;9.17;;;2.50;;
71963;SDS011;59834;52.124;5.422;2022-08-21T06:46:48;7.97;;;2.63;;
71963;SDS011;59834;52.124;5.422;2022-08-21T06:49:15;5.50;;;2.15;;
71963;SDS011;59834;52.124;5.422;2022-08-21T06:51:46;7.40;;;2.83;;
71963;SDS011;59834;52.124;5.422;2022-08-21T06:54:13;6.72;;;2.78;;
71963;SDS011;59834;52.124;5.422;2022-08-21T06:56:39;6.53;;;3.37;;
71963;SDS011;59834;52.124;5.422;2022-08-21T06:59:06;7.63;;;2.80;;
71963;SDS011;59834;52.124;5.422;2022-08-21T07:01:33;4.88;;;2.33;;
71963;SDS011;59834;52.124;5.422;2022-08-21T07:03:59;9.82;;;2.92;;
71963;SDS011;59834;52.124;5.422;2022-08-21T07:06:26;9.57;;;2.33;;
71963;SDS011;59834;52.124;5.422;2022-08-21T07:08:54;8.50;;;2.60;;
71963;SDS011;59834;52.124;5.422;2022-08-21T07:11:24;9.25;;;2.58;;
71963;SDS011;59834;52.124;5.422;2022-08-21T07:13:51;6.30;;;2.42;;
71963;SDS011;59834;52.124;5.422;2022-08-21T07:16:20;6.75;;;2.47;;
71963;SDS011;59834;52.124;5.422;2022-08-21T07:18:47;5.97;;;2.55;;
71963;SDS011;59834;52.124;5.422;2022-08-21T07:21:14;15.80;;;2.80;;
71963;SDS011;59834;52.124;5.422;2022-08-21T07:23:44;7.95;;;2.95;;
71963;SDS011;59834;52.124;5.422;2022-08-21T07:26:14;8.88;;;2.40;;
71963;SDS011;59834;52.124;5.422;2022-08-21T07:28:43;8.70;;;3.03;;
71963;SDS011;59834;52.124;5.422;2022-08-21T07:31:10;4.68;;;1.63;;
71963;SDS011;59834;52.124;5.422;2022-08-21T07:33:39;8.50;;;2.70;;
71963;SDS011;59834;52.124;5.422;2022-08-21T07:36:07;9.65;;;2.50;;
71963;SDS011;59834;52.124;5.422;2022-08-21T07:38:34;5.85;;;2.55;;
71963;SDS011;59834;52.124;5.422;2022-08-21T07:41:01;6.25;;;2.28;;
71963;SDS011;59834;52.124;5.422;2022-08-21T07:43:30;11.77;;;2.35;;
71963;SDS011;59834;52.124;5.422;2022-08-21T07:45:57;6.90;;;2.03;;
71963;SDS011;59834;52.124;5.422;2022-08-21T07:48:23;9.80;;;2.47;;
71963;SDS011;59834;52.124;5.422;2022-08-21T07:50:50;8.57;;;1.80;;
71963;SDS011;59834;52.124;5.422;2022-08-21T07:53:17;8.23;;;2.10;;
71963;SDS011;59834;52.124;5.422;2022-08-21T07:55:44;6.18;;;1.88;;
71963;SDS011;59834;52.124;5.422;2022-08-21T07:58:10;9.63;;;2.37;;
71963;SDS011;59834;52.124;5.422;2022-08-21T08:00:37;13.93;;;3.17;;
71963;SDS011;59834;52.124;5.422;2022-08-21T08:03:03;8.60;;;2.22;;
71963;SDS011;59834;52.124;5.422;2022-08-21T08:05:30;8.30;;;1.92;;
71963;SDS011;59834;52.124;5.422;2022-08-21T08:07:58;7.22;;;1.73;;
71963;SDS011;59834;52.124;5.422;2022-08-21T08:10:25;10.10;;;2.20;;
71963;SDS011;59834;52.124;5.422;2022-08-21T08:12:52;6.20;;;1.65;;
71963;SDS011;59834;52.124;5.422;2022-08-21T08:15:22;9.25;;;2.10;;
71963;SDS011;59834;52.124;5.422;2022-08-21T08:17:51;7.40;;;2.03;;
71963;SDS011;59834;52.124;5.422;2022-08-21T08:20:18;8.98;;;2.55;;
71963;SDS011;59834;52.124;5.422;2022-08-21T08:22:46;6.33;;;2.03;;
71963;SDS011;59834;52.124;5.422;2022-08-21T08:25:15;9.82;;;2.60;;
71963;SDS011;59834;52.124;5.422;2022-08-21T08:27:43;9.15;;;1.90;;
71963;SDS011;59834;52.124;5.422;2022-08-21T08:30:11;9.55;;;2.85;;
71963;SDS011;59834;52.124;5.422;2022-08-21T08:32:39;7.97;;;2.10;;
71963;SDS011;59834;52.124;5.422;2022-08-21T08:35:06;8.57;;;2.17;;
71963;SDS011;59834;52.124;5.422;2022-08-21T08:37:34;9.27;;;2.25;;
71963;SDS011;59834;52.124;5.422;2022-08-21T08:40:11;9.10;;;2.20;;
71963;SDS011;59834;52.124;5.422;2022-08-21T08:42:46;11.00;;;2.40;;
71963;SDS011;59834;52.124;5.422;2022-08-21T08:45:16;9.80;;;1.42;;
71963;SDS011;59834;52.124;5.422;2022-08-21T08:47:51;12.80;;;1.90;;
71963;SDS011;59834;52.124;5.422;2022-08-21T08:53:00;8.30;;;1.38;;
71963;SDS011;59834;52.124;5.422;2022-08-21T08:55:35;9.30;;;1.77;;
71963;SDS011;59834;52.124;5.422;2022-08-21T08:58:03;6.97;;;2.00;;
71963;SDS011;59834;52.124;5.422;2022-08-21T09:00:30;7.43;;;1.83;;
71963;SDS011;59834;52.124;5.422;2022-08-21T09:02:57;7.90;;;1.48;;
71963;SDS011;59834;52.124;5.422;2022-08-21T09:11:15;6.13;;;0.85;;
71963;SDS011;59834;52.124;5.422;2022-08-21T09:13:54;10.87;;;1.43;;
71963;SDS011;59834;52.124;5.422;2022-08-21T09:16:29;6.65;;;1.27;;
71963;SDS011;59834;52.124;5.422;2022-08-21T09:19:15;6.03;;;1.50;;
71963;SDS011;59834;52.124;5.422;2022-08-21T09:27:23;8.77;;;1.77;;
71963;SDS011;59834;52.124;5.422;2022-08-21T09:29:51;7.45;;;1.73;;
71963;SDS011;59834;52.124;5.422;2022-08-21T09:32:22;5.65;;;0.90;;
71963;SDS011;59834;52.124;5.422;2022-08-21T09:37:29;6.68;;;1.38;;
71963;SDS011;59834;52.124;5.422;2022-08-21T09:39:57;9.17;;;1.17;;
71963;SDS011;59834;52.124;5.422;2022-08-21T09:42:26;8.05;;;1.27;;
71963;SDS011;59834;52.124;5.422;2022-08-21T09:45:15;10.02;;;1.73;;
71963;SDS011;59834;52.124;5.422;2022-08-21T09:47:44;7.20;;;1.20;;
71963;SDS011;59834;52.124;5.422;2022-08-21T09:50:22;11.02;;;1.00;;
71963;SDS011;59834;52.124;5.422;2022-08-21T09:52:56;6.00;;;0.87;;
71963;SDS011;59834;52.124;5.422;2022-08-21T09:55:30;6.22;;;0.93;;
71963;SDS011;59834;52.124;5.422;2022-08-21T09:58:18;10.15;;;1.42;;
71963;SDS011;59834;52.124;5.422;2022-08-21T10:00:49;8.05;;;1.90;;
71963;SDS011;59834;52.124;5.422;2022-08-21T10:03:24;9.02;;;1.02;;
71963;SDS011;59834;52.124;5.422;2022-08-21T10:05:53;6.77;;;1.20;;
71963;SDS011;59834;52.124;5.422;2022-08-21T10:08:24;10.73;;;1.20;;
71963;SDS011;59834;52.124;5.422;2022-08-21T10:11:04;5.03;;;1.10;;
71963;SDS011;59834;52.124;5.422;2022-08-21T10:13:50;5.25;;;1.10;;
71963;SDS011;59834;52.124;5.422;2022-08-21T10:19:36;5.23;;;0.97;;
71963;SDS011;59834;52.124;5.422;2022-08-21T10:25:31;8.63;;;1.88;;
71963;SDS011;59834;52.124;5.422;2022-08-21T10:28:10;4.70;;;1.17;;
71963;SDS011;59834;52.124;5.422;2022-08-21T10:30:50;7.75;;;1.50;;
71963;SDS011;59834;52.124;5.422;2022-08-21T10:36:20;4.70;;;0.85;;
71963;SDS011;59834;52.124;5.422;2022-08-21T10:42:02;8.00;;;1.15;;
71963;SDS011;59834;52.124;5.422;2022-08-21T10:44:35;4.32;;;0.80;;
71963;SDS011;59834;52.124;5.422;2022-08-21T10:47:15;7.10;;;1.03;;
71963;SDS011;59834;52.124;5.422;2022-08-21T10:52:44;8.05;;;1.02;;
71963;SDS011;59834;52.124;5.422;2022-08-21T10:55:25;5.40;;;0.82;;
71963;SDS011;59834;52.124;5.422;2022-08-21T11:00:53;6.40;;;0.93;;
71963;SDS011;59834;52.124;5.422;2022-08-21T11:03:33;3.90;;;0.95;;
71963;SDS011;59834;52.124;5.422;2022-08-21T11:06:14;4.78;;;0.77;;
71963;SDS011;59834;52.124;5.422;2022-08-21T11:08:45;6.75;;;1.00;;
71963;SDS011;59834;52.124;5.422;2022-08-21T11:11:21;4.72;;;0.80;;
71963;SDS011;59834;52.124;5.422;2022-08-21T11:16:56;8.20;;;1.33;;
71963;SDS011;59834;52.124;5.422;2022-08-21T11:19:45;6.13;;;1.48;;
71963;SDS011;59834;52.124;5.422;2022-08-21T11:22:24;6.18;;;0.98;;
71963;SDS011;59834;52.124;5.422;2022-08-21T11:24:57;4.38;;;0.73;;
71963;SDS011;59834;52.124;5.422;2022-08-21T11:27:32;9.17;;;1.80;;
71963;SDS011;59834;52.124;5.422;2022-08-21T11:30:11;4.90;;;0.82;;
71963;SDS011;59834;52.124;5.422;2022-08-21T11:38:34;5.07;;;0.80;;
71963;SDS011;59834;52.124;5.422;2022-08-21T11:44:08;6.78;;;1.48;;
71963;SDS011;59834;52.124;5.422;2022-08-21T11:49:21;4.65;;;0.80;;
71963;SDS011;59834;52.124;5.422;2022-08-21T11:57:51;3.38;;;0.80;;
71963;SDS011;59834;52.124;5.422;2022-08-21T12:00:26;4.95;;;1.58;;
71963;SDS011;59834;52.124;5.422;2022-08-21T12:02:59;4.30;;;0.88;;
71963;SDS011;59834;52.124;5.422;2022-08-21T12:05:40;4.60;;;0.88;;
71963;SDS011;59834;52.124;5.422;2022-08-21T12:08:13;5.83;;;2.03;;
71963;SDS011;59834;52.124;5.422;2022-08-21T12:11:05;3.63;;;1.02;;
71963;SDS011;59834;52.124;5.422;2022-08-21T12:13:35;8.50;;;1.27;;
71963;SDS011;59834;52.124;5.422;2022-08-21T12:16:15;5.35;;;1.20;;
71963;SDS011;59834;52.124;5.422;2022-08-21T12:21:58;12.33;;;1.27;;
71963;SDS011;59834;52.124;5.422;2022-08-21T12:29:29;3.95;;;1.23;;
71963;SDS011;59834;52.124;5.422;2022-08-21T12:32:02;9.15;;;1.33;;
71963;SDS011;59834;52.124;5.422;2022-08-21T12:37:04;7.00;;;1.00;;
71963;SDS011;59834;52.124;5.422;2022-08-21T12:39:42;8.95;;;1.17;;
71963;SDS011;59834;52.124;5.422;2022-08-21T12:44:55;4.93;;;0.82;;
71963;SDS011;59834;52.124;5.422;2022-08-21T12:47:36;9.70;;;2.40;;
71963;SDS011;59834;52.124;5.422;2022-08-21T12:50:19;9.15;;;0.85;;
71963;SDS011;59834;52.124;5.422;2022-08-21T12:52:59;3.88;;;0.68;;
71963;SDS011;59834;52.124;5.422;2022-08-21T12:55:46;4.90;;;0.98;;
71963;SDS011;59834;52.124;5.422;2022-08-21T12:58:16;3.50;;;0.65;;
71963;SDS011;59834;52.124;5.422;2022-08-21T13:00:52;7.57;;;1.40;;
71963;SDS011;59834;52.124;5.422;2022-08-21T13:03:22;9.45;;;0.80;;
71963;SDS011;59834;52.124;5.422;2022-08-21T13:05:49;4.90;;;0.60;;
71963;SDS011;59834;52.124;5.422;2022-08-21T13:08:18;6.38;;;0.70;;
71963;SDS011;59834;52.124;5.422;2022-08-21T13:10:49;8.23;;;1.23;;
71963;SDS011;59834;52.124;5.422;2022-08-21T13:13:39;6.93;;;0.60;;
71963;SDS011;59834;52.124;5.422;2022-08-21T13:16:17;3.70;;;0.95;;
71963;SDS011;59834;52.124;5.422;2022-08-21T13:19:00;5.32;;;1.05;;
71963;SDS011;59834;52.124;5.422;2022-08-21T13:21:38;3.83;;;0.63;;
71963;SDS011;59834;52.124;5.422;2022-08-21T13:24:19;4.15;;;0.88;;
71963;SDS011;59834;52.124;5.422;2022-08-21T13:27:17;3.40;;;0.90;;
71963;SDS011;59834;52.124;5.422;2022-08-21T13:29:46;4.28;;;0.80;;
71963;SDS011;59834;52.124;5.422;2022-08-21T13:32:21;2.85;;;0.82;;
71963;SDS011;59834;52.124;5.422;2022-08-21T13:34:51;3.33;;;1.23;;
71963;SDS011;59834;52.124;5.422;2022-08-21T13:37:19;2.60;;;0.63;;
71963;SDS011;59834;52.124;5.422;2022-08-21T13:39:51;5.70;;;0.57;;
71963;SDS011;59834;52.124;5.422;2022-08-21T13:42:18;4.50;;;0.73;;
71963;SDS011;59834;52.124;5.422;2022-08-21T13:44:46;5.10;;;0.80;;
71963;SDS011;59834;52.124;5.422;2022-08-21T13:47:14;7.43;;;1.00;;
71963;SDS011;59834;52.124;5.422;2022-08-21T13:49:43;5.32;;;1.55;;
71963;SDS011;59834;52.124;5.422;2022-08-21T13:52:23;3.23;;;0.93;;
71963;SDS011;59834;52.124;5.422;2022-08-21T13:54:56;6.03;;;1.42;;
71963;SDS011;59834;52.124;5.422;2022-08-21T13:57:34;2.27;;;0.63;;
71963;SDS011;59834;52.124;5.422;2022-08-21T14:02:41;8.43;;;1.20;;
71963;SDS011;59834;52.124;5.422;2022-08-21T14:05:18;2.50;;;0.60;;
71963;SDS011;59834;52.124;5.422;2022-08-21T14:07:49;6.57;;;0.65;;
71963;SDS011;59834;52.124;5.422;2022-08-21T14:10:19;12.43;;;1.43;;
71963;SDS011;59834;52.124;5.422;2022-08-21T14:12:51;3.60;;;1.10;;
71963;SDS011;59834;52.124;5.422;2022-08-21T14:15:25;3.95;;;0.88;;
71963;SDS011;59834;52.124;5.422;2022-08-21T14:17:57;4.38;;;0.73;;
71963;SDS011;59834;52.124;5.422;2022-08-21T14:20:35;3.75;;;0.80;;
71963;SDS011;59834;52.124;5.422;2022-08-21T14:23:02;2.13;;;0.60;;
71963;SDS011;59834;52.124;5.422;2022-08-21T14:25:44;5.35;;;0.90;;
71963;SDS011;59834;52.124;5.422;2022-08-21T14:30:54;4.85;;;0.93;;
71963;SDS011;59834;52.124;5.422;2022-08-21T14:33:26;5.32;;;0.90;;
71963;SDS011;59834;52.124;5.422;2022-08-21T14:35:55;3.53;;;0.97;;
71963;SDS011;59834;52.124;5.422;2022-08-21T14:38:23;8.57;;;1.10;;
71963;SDS011;59834;52.124;5.422;2022-08-21T14:40:52;6.65;;;0.80;;
71963;SDS011;59834;52.124;5.422;2022-08-21T14:43:25;6.85;;;0.70;;
71963;SDS011;59834;52.124;5.422;2022-08-21T14:45:55;3.65;;;1.30;;
71963;SDS011;59834;52.124;5.422;2022-08-21T14:48:22;6.07;;;0.60;;
71963;SDS011;59834;52.124;5.422;2022-08-21T14:50:48;4.47;;;0.88;;
71963;SDS011;59834;52.124;5.422;2022-08-21T14:53:20;5.57;;;0.75;;
71963;SDS011;59834;52.124;5.422;2022-08-21T14:55:50;6.82;;;1.30;;
71963;SDS011;59834;52.124;5.422;2022-08-21T14:58:45;6.00;;;0.82;;
71963;SDS011;59834;52.124;5.422;2022-08-21T15:01:22;5.63;;;1.07;;
71963;SDS011;59834;52.124;5.422;2022-08-21T15:03:49;5.57;;;0.80;;
71963;SDS011;59834;52.124;5.422;2022-08-21T15:06:18;4.22;;;0.52;;
71963;SDS011;59834;52.124;5.422;2022-08-21T15:08:47;4.13;;;0.80;;
71963;SDS011;59834;52.124;5.422;2022-08-21T15:11:21;4.18;;;0.90;;
71963;SDS011;59834;52.124;5.422;2022-08-21T15:14:10;4.20;;;0.70;;
71963;SDS011;59834;52.124;5.422;2022-08-21T15:16:43;6.88;;;0.90;;
71963;SDS011;59834;52.124;5.422;2022-08-21T15:19:10;5.38;;;0.82;;
71963;SDS011;59834;52.124;5.422;2022-08-21T15:21:36;6.97;;;0.70;;
71963;SDS011;59834;52.124;5.422;2022-08-21T15:24:03;4.30;;;0.80;;
71963;SDS011;59834;52.124;5.422;2022-08-21T15:26:30;3.67;;;0.80;;
71963;SDS011;59834;52.124;5.422;2022-08-21T15:28:56;6.50;;;1.00;;
71963;SDS011;59834;52.124;5.422;2022-08-21T15:31:25;6.32;;;0.88;;
71963;SDS011;59834;52.124;5.422;2022-08-21T15:33:52;6.75;;;0.90;;
71963;SDS011;59834;52.124;5.422;2022-08-21T15:36:19;5.57;;;0.70;;
71963;SDS011;59834;52.124;5.422;2022-08-21T15:38:46;2.83;;;0.80;;
71963;SDS011;59834;52.124;5.422;2022-08-21T15:41:12;5.55;;;0.88;;
71963;SDS011;59834;52.124;5.422;2022-08-21T15:43:45;5.45;;;1.10;;
71963;SDS011;59834;52.124;5.422;2022-08-21T15:46:16;2.80;;;0.70;;
71963;SDS011;59834;52.124;5.422;2022-08-21T15:48:47;3.63;;;0.90;;
71963;SDS011;59834;52.124;5.422;2022-08-21T15:51:14;4.30;;;0.60;;
71963;SDS011;59834;52.124;5.422;2022-08-21T15:53:43;4.38;;;0.80;;
71963;SDS011;59834;52.124;5.422;2022-08-21T15:56:32;5.07;;;0.60;;
71963;SDS011;59834;52.124;5.422;2022-08-21T15:59:03;2.58;;;0.50;;
71963;SDS011;59834;52.124;5.422;2022-08-21T16:01:33;5.03;;;0.98;;
71963;SDS011;59834;52.124;5.422;2022-08-21T16:04:09;4.13;;;0.70;;
71963;SDS011;59834;52.124;5.422;2022-08-21T16:06:41;3.15;;;0.70;;
71963;SDS011;59834;52.124;5.422;2022-08-21T16:09:22;3.97;;;0.63;;
71963;SDS011;59834;52.124;5.422;2022-08-21T16:11:49;4.07;;;0.50;;
71963;SDS011;59834;52.124;5.422;2022-08-21T16:14:17;3.20;;;0.57;;
71963;SDS011;59834;52.124;5.422;2022-08-21T16:16:44;4.43;;;0.90;;
71963;SDS011;59834;52.124;5.422;2022-08-21T16:19:11;2.92;;;1.10;;
71963;SDS011;59834;52.124;5.422;2022-08-21T16:21:39;3.75;;;0.60;;
71963;SDS011;59834;52.124;5.422;2022-08-21T16:24:06;4.28;;;0.70;;